Latest Coastal Weather Observations for Lord Howe Island

IDN60701

Issued at 7:51 am EST Tuesday 30 August 2016 (issued every 10 minutes, with the page automatically refreshed every 10 minutes)

About coastal observations | Map of coastal stations | Coastal observations for NSW | Marine services | Other Formats
Station Details ID: 200839 Name: LORD HOWE ISLAND AERO Lat: -31.54 Lon: 159.08 Height: 5.0 m
Data from the previous 72 hours. | See also: Recent months at Lord Howe Island
Date/Time
EST
Temp
°C
Wind Pressure Rain since
9am
mm
Weather Cloud Vis
km
Sea
Height
m
Swell
Dir  Spd
kts
Gust
kts
hPa Trend Height
m
Period
s
Dir
30/07:30am 17.3 SW 3 6 1029.4 - 0.0 - Partly cloudy 10 - - - -
30/07:00am 17.7 ESE 5 9 1028.9 - 0.0 - Partly cloudy 10 - - - -
30/06:30am 16.5 SE 6 11 1028.5 - 0.0 - Partly cloudy 10 - - - -
30/06:00am 15.3 E 5 10 1028.0 - 0.0 - Partly cloudy 10 - - - -
30/05:30am 14.1 WNW 1 3 1027.5 - 0.0 - Cloudy 10 - - - -
30/05:00am 15.8 S 3 6 1027.4 - 0.0 - Partly cloudy 10 - - - -
30/04:30am 15.2 NW 4 7 1027.4 - 0.0 - Cloudy 10 - - - -
30/04:00am 14.1 SSW 1 4 1026.6 - 0.0 - Partly cloudy 10 - - - -
30/03:30am 14.9 SW 2 4 1026.3 - 0.0 - Partly cloudy 10 - - - -
30/03:00am 15.8 WNW 2 9 1025.9 - 0.0 - Partly cloudy 10 - - - -
30/02:30am 15.8 SSE 5 10 1026.0 - 0.0 - Mostly clear 10 - - - -
30/02:00am 15.9 ESE 5 10 1026.1 - 0.0 - Partly cloudy 10 - - - -
30/01:30am 15.3 SSW 2 4 1026.3 - 0.0 - Partly cloudy 10 - - - -
30/01:00am 16.1 S 4 8 1026.6 - 0.0 - Partly cloudy 10 - - - -
30/12:30am 16.3 S 6 10 1026.6 - 0.0 - Partly cloudy 10 - - - -
30/12:00am 16.2 SSW 8 15 1026.6 - 0.0 - Partly cloudy 10 - - - -
 
Date/Time
EST
Temp
°C
Wind Pressure Rain since
9am
mm
Weather Cloud Vis
km
Sea
Height
m
Swell
Dir  Spd
kts
Gust
kts
hPa Trend Height
m
Period
s
Dir
29/11:30pm 16.6 SSW 7 18 1026.9 - 0.0 - Mostly clear 10 - - - -
29/11:00pm 16.2 SSW 7 15 1026.6 - 0.0 - Partly cloudy 10 - - - -
29/10:30pm 16.4 S 7 13 1026.7 - 0.0 - Partly cloudy 10 - - - -
29/10:00pm 16.4 SSW 8 14 1026.7 - 0.0 - - 10 - - - -
29/09:30pm 16.5 SSW 9 14 1026.8 - 0.0 - - 10 - - - -
29/09:00pm 16.3 SSW 7 12 1026.6 - 0.0 - Partly cloudy 10 - - - -
29/08:30pm 16.4 S 6 10 1026.7 - 0.0 - - 10 - - - -
29/08:00pm 16.7 SSW 9 15 1026.7 - 0.0 - - 10 - - - -
29/07:30pm 16.7 SSW 9 13 1026.2 - 0.0 - - 10 - - - -
29/07:00pm 16.8 SSW 8 13 1026.0 - 0.0 - - 10 - - - -
29/06:30pm 16.9 S 7 13 1025.7 - 0.0 - - 10 - - - -
29/06:00pm 17.3 SSW 9 15 1025.3 - 0.0 - - 10 - - - -
29/05:30pm 17.2 SSW 9 14 1024.7 - 0.0 - - 10 - - - -
29/05:00pm 17.4 SSW 9 12 1024.6 - 0.0 - - 10 - - - -
29/04:30pm 17.6 SSW 11 17 1024.6 - 0.0 - Partly cloudy 10 - - - -
29/04:00pm 18.3 SSW 11 18 1024.3 - 0.0 - Mostly cloudy 10 - - - -
29/03:30pm 18.4 SSW 10 18 1024.0 - 0.0 - Mostly cloudy 10 - - - -
29/03:00pm 18.1 SSW 10 17 1024.0 - 0.0 - Mostly cloudy 10 - - - -
29/02:30pm 18.9 SSW 10 15 1023.8 - 0.0 - Partly cloudy 10 - - - -
29/02:00pm 18.9 SW 10 17 1023.8 - 0.0 - Partly cloudy 10 - - - -
29/01:30pm 19.3 SW 9 17 1023.9 - 0.0 - Mostly clear 10 - - - -
29/01:00pm 19.5 SSW 10 17 1023.8 - 0.0 - Partly cloudy 10 - - - -
29/12:30pm 19.3 WSW 9 11 1024.0 - 0.0 - Partly cloudy 10 - - - -
29/12:00pm 19.4 SSW 10 15 1024.4 - 0.0 - Partly cloudy 10 - - - -
29/11:30am 19.2 SW 9 15 1024.6 - 0.0 - Mostly clear 10 - - - -
29/11:00am 19.0 SW 9 16 1024.7 - 0.0 - Mostly clear 10 - - - -
29/10:30am 19.4 SSW 10 17 1024.7 - 0.0 - Partly cloudy 10 - - - -
29/10:00am 19.3 SSW 10 17 1024.8 - 0.0 - Partly cloudy 10 - - - -
29/09:30am 19.1 SSW 10 14 1024.6 - 0.0 - Partly cloudy 10 - - - -
29/09:00am 18.8 SSW 11 18 1024.3 - 0.0 - Mostly cloudy 10 - - - -
29/08:30am 18.5 SSW 8 11 1024.3 - 0.2 - Mostly cloudy 10 - - - -
29/08:00am 18.1 SW 11 17 1023.9 - 0.2 - Mostly cloudy 10 - - - -
29/07:30am 17.9 SW 12 18 1023.6 - 0.2 - Partly cloudy 10 - - - -
29/07:00am 18.1 SW 10 17 1023.4 - 0.2 - Partly cloudy 10 - - - -
29/06:30am 17.7 SW 10 15 1023.2 - 0.2 - Partly cloudy 10 - - - -
29/06:00am 17.7 SW 10 16 1022.7 - 0.2 - Partly cloudy 10 - - - -
29/05:30am 17.4 SW 12 19 1022.3 - 0.2 - Mostly clear 10 - - - -
29/05:00am 17.4 SW 13 19 1022.0 - 0.2 - Partly cloudy 10 - - - -
29/04:30am 17.5 SW 13 19 1021.7 - 0.2 - Partly cloudy 10 - - - -
29/04:00am 17.5 WSW 14 20 1021.5 - 0.2 - Partly cloudy 10 - - - -
29/03:30am 17.7 SW 14 19 1021.2 - 0.2 - Partly cloudy 10 - - - -
29/03:00am 17.6 WSW 10 14 1021.0 - 0.2 - Partly cloudy 10 - - - -
29/02:30am 17.4 WSW 11 16 1021.0 - 0.2 - Partly cloudy 10 - - - -
29/02:00am 17.0 WSW 10 13 1021.2 - 0.2 - Partly cloudy 10 - - - -
29/01:30am 16.8 WSW 9 12 1021.3 - 0.2 - Partly cloudy 10 - - - -
29/01:00am 16.3 SW 6 9 1021.6 - 0.2 - Partly cloudy 10 - - - -
29/12:30am 15.4 SSW 6 9 1021.9 - 0.2 - Partly cloudy 10 - - - -
29/12:00am 15.9 SSW 6 9 1022.0 - 0.2 - Partly cloudy 10 - - - -
 
Date/Time
EST
Temp
°C
Wind Pressure Rain since
9am
mm
Weather Cloud Vis
km
Sea
Height
m
Swell
Dir  Spd
kts
Gust
kts
hPa Trend Height
m
Period
s
Dir
28/11:30pm 15.9 SSW 6 9 1022.1 - 0.2 - Partly cloudy 10 - - - -
28/11:00pm 15.5 SSW 6 8 1022.1 - 0.2 - Partly cloudy 10 - - - -
28/10:30pm 13.7 S 5 8 1022.4 - 0.2 - - 10 - - - -
28/10:00pm 12.1 SSE 2 4 1022.2 - 0.2 - - 10 - - - -
28/09:30pm 12.7 ESE 2 4 1022.1 - 0.2 - - 10 - - - -
28/09:00pm 14.0 SE 3 5 1021.9 - 0.2 - - 10 - - - -
28/08:30pm 13.7 SSE 3 5 1022.0 - 0.2 - - 10 - - - -
28/08:00pm 13.8 S 3 5 1021.6 - 0.2 - - 10 - - - -
28/07:30pm 15.2 S 5 8 1021.5 - 0.2 - - 10 - - - -
28/07:00pm 15.0 SE 5 7 1021.1 - 0.2 - - 10 - - - -
28/06:30pm 15.7 SSW 6 10 1021.2 - 0.2 - - 10 - - - -
28/06:00pm 15.9 SSW 8 19 1021.1 - 0.2 - - 10 - - - -
28/05:30pm 16.0 SSW 10 16 1020.9 - 0.2 - - 10 - - - -
28/05:00pm 16.2 SSW 7 12 1020.5 - 0.2 - - 10 - - - -
28/04:30pm 16.5 SSW 9 17 1020.1 - 0.2 - - 10 - - - -
28/04:00pm 17.0 SSW 6 17 1019.6 - 0.2 - - 10 - - - -
28/03:30pm 17.3 SSW 8 18 1019.6 - 0.2 - Partly cloudy 10 - - - -
28/03:00pm 17.6 SW 8 15 1019.3 - 0.2 - Partly cloudy 10 - - - -
28/02:30pm 18.2 SSW 10 20 1019.1 - 0.2 - Partly cloudy 10 - - - -
28/02:00pm 18.4 SSW 11 18 1019.1 - 0.2 - Partly cloudy 10 - - - -
28/01:30pm 18.3 SSW 12 21 1019.1 - 0.2 - Partly cloudy 10 - - - -
28/01:00pm 18.3 SSW 13 26 1019.1 - 0.2 - Partly cloudy 10 - - - -
28/12:30pm 18.3 SSW 11 21 1019.3 - 0.2 - Partly cloudy 10 - - - -
28/12:00pm 18.3 SSW 11 23 1019.6 - 0.2 - Partly cloudy 10 - - - -
28/11:30am 18.0 SSW 12 23 1019.6 - 0.2 - Partly cloudy 10 - - - -
28/11:00am 17.4 SSW 8 15 1019.9 - 0.2 - Partly cloudy 10 - - - -
28/10:30am 17.3 SSW 9 21 1020.2 - 0.2 - Partly cloudy 10 - - - -
28/10:00am 17.8 SSW 12 24 1020.3 - 0.2 - Partly cloudy 10 - - - -
28/09:30am 17.3 SW 10 22 1020.4 - 0.2 - Partly cloudy 10 - - - -
28/09:00am 17.6 SW 7 12 1020.2 - 0.0 - Cloudy 10 - - - -
28/08:30am 17.6 SSW 8 16 1020.0 - 12.8 - Cloudy 10 - - - -
28/08:00am 17.9 ESE 7 12 1019.5 - 12.8 - Cloudy 10 - - - -
28/07:30am 17.1 S 6 13 1019.5 - 12.8 - Cloudy 10 - - - -
28/07:00am 16.5 SSE 7 15 1019.3 - 12.8 - Partly cloudy 10 - - - -
28/06:30am 15.9 SSE 7 17 1018.6 - 12.8 - Partly cloudy 10 - - - -
28/06:10am 15.0 SE 6 13 1018.6 - 12.8 - Partly cloudy 10 - - - -
28/06:07am 15.1 ESE 7 13 1018.5 - 12.8 - Partly cloudy 10 - - - -
28/06:00am 14.4 SE 7 15 1018.5 - 12.8 - Partly cloudy 10 - - - -
28/05:49am 14.5 E 15 29 1017.9 - 12.8 - Partly cloudy 4 - - - -
28/05:47am 15.1 E 11 15 1018.3 - 12.2 - Partly cloudy 5 - - - -
28/05:30am 15.1 ESE 11 17 1017.9 R 11.6 Showers Mostly cloudy 18 - - - -
28/05:00am 15.3 S 9 26 1017.6 - 11.4 - Partly cloudy 10 - - - -
28/04:49am 15.0 SSE 7 16 1017.5 - 11.4 - Partly cloudy 10 - - - -
28/04:36am 14.8 SE 6 16 1017.5 - 11.4 - Partly cloudy 10 - - - -
28/04:30am 15.0 SE 6 10 1017.3 - 11.4 - Partly cloudy 10 - - - -
28/04:16am 14.5 ESE 12 18 1017.4 - 11.4 - Partly cloudy 8 - - - -
28/04:12am 14.4 E 17 21 1017.2 - 11.2 - Partly cloudy 9 - - - -
28/04:01am 14.9 SSE 7 14 1017.6 - 11.2 - Partly cloudy 10 - - - -
28/04:00am 14.9 SE 7 14 1017.5 - 11.2 - Partly cloudy 10 - - - -
28/03:50am 14.6 ESE 7 15 1017.2 - 11.2 - Partly cloudy 10 - - - -
28/03:36am 14.8 SE 13 24 1017.1 - 10.4 - Partly cloudy 10 - - - -
28/03:30am 14.9 S 9 16 1017.1 - 10.2 - Partly cloudy 9 - - - -
28/03:26am 14.3 E 11 25 1016.7 - 10.0 - Partly cloudy 10 - - - -
28/03:20am 14.9 ESE 6 14 1017.0 - 9.8 - Partly cloudy 10 - - - -
28/03:12am 14.5 ESE 8 19 1016.8 - 9.8 - Partly cloudy 10 - - - -
28/03:00am 14.7 SE 8 13 1016.9 - 9.8 - Partly cloudy 5 - - - -
28/02:49am 14.8 S 6 12 1016.9 - 8.6 - Partly cloudy 5 - - - -
28/02:38am 15.1 SE 11 14 1016.8 - 7.2 - Partly cloudy 10 - - - -
28/02:30am 14.8 SE 9 17 1016.9 - 7.2 - Cloudy 10 - - - -
28/02:00am 16.2 ESE 8 14 1016.4 - 6.8 - Partly cloudy 10 - - - -
28/01:30am 16.3 SE 9 22 1016.8 - 6.8 - Partly cloudy 10 - - - -
28/01:00am 15.7 ESE 6 12 1016.7 - 6.8 - Partly cloudy 10 - - - -
28/12:30am 14.8 SSE 5 10 1017.0 - 6.8 - Partly cloudy 10 - - - -
28/12:04am 14.9 S 10 15 1017.0 - 6.8 - Partly cloudy 10 - - - -
28/12:00am 14.8 ESE 6 12 1017.0 - 6.8 - Partly cloudy 10 - - - -
 
Date/Time
EST
Temp
°C
Wind Pressure Rain since
9am
mm
Weather Cloud Vis
km
Sea
Height
m
Swell
Dir  Spd
kts
Gust
kts
hPa Trend Height
m
Period
s
Dir
27/11:45pm 14.7 SE 9 11 1017.4 - 6.4 - Partly cloudy 5 - - - -
27/11:30pm 16.2 SSE 9 15 1017.0 - 4.6 - Cloudy 10 - - - -
27/11:00pm 16.5 E 11 18 1016.9 - 4.6 - Partly cloudy 10 - - - -
27/10:30pm 16.4 E 10 20 1017.2 - 4.6 - Partly cloudy 10 - - - -
27/10:00pm 16.0 SE 6 11 1017.1 - 4.6 - Partly cloudy 10 - - - -
27/09:30pm 16.0 ESE 10 20 1017.2 - 4.6 - Cloudy 10 - - - -
27/09:00pm 15.9 ESE 10 16 1017.0 - 4.6 - Partly cloudy 10 - - - -
27/08:30pm 15.0 SE 7 13 1017.1 - 4.4 - Cloudy 10 - - - -
27/08:00pm 15.5 E 15 24 1017.0 - 4.2 - Partly cloudy 10 - - - -
27/07:30pm 15.7 ESE 10 19 1016.9 - 4.2 - Partly cloudy 10 - - - -
27/07:00pm 15.7 E 20 25 1016.8 - 4.2 - Partly cloudy 10 - - - -
27/06:30pm 15.5 E 18 24 1016.5 - 4.2 - Partly cloudy 10 - - - -
27/06:00pm 15.1 E 22 28 1016.2 - 4.0 - Partly cloudy 8 - - - -
27/05:30pm 15.4 E 19 27 1016.3 - 3.2 - Cloudy 9 - - - -
27/05:00pm 15.0 ENE 19 25 1016.1 - 2.8 - Partly cloudy 9 - - - -
27/04:30pm 15.1 E 23 28 1016.0 - 2.2 - Partly cloudy 8 - - - -
27/04:00pm 15.5 E 21 30 1015.4 - 1.4 - Partly cloudy 9 - - - -
27/03:54pm 15.6 E 20 30 1015.4 - 1.4 - Partly cloudy 9 - - - -
27/03:30pm 16.6 E 20 25 1015.4 - 0.8 - Partly cloudy 10 - - - -
27/03:00pm 16.8 E 21 26 1015.4 - 0.8 - Partly cloudy 10 - - - -
27/02:30pm 17.0 E 19 24 1015.5 F 0.8 Drizzle Cloudy 18 - - - -
27/02:00pm 16.9 E 17 23 1015.5 - 0.8 - Partly cloudy 10 - - - -
27/01:30pm 16.5 E 15 23 1015.7 - 0.8 - Partly cloudy 10 - - - -
27/01:00pm 16.4 ESE 12 19 1015.9 - 0.4 - Partly cloudy 10 - - - -
27/12:30pm 16.9 E 12 19 1016.3 - 0.2 - Partly cloudy 10 - - - -
27/12:00pm 16.9 E 17 22 1016.7 - 0.2 - Partly cloudy 10 - - - -
27/11:30am 16.5 E 9 14 1017.0 - 0.2 - Mostly cloudy 10 - - - -
27/11:00am 16.5 E 19 23 1017.4 - 0.2 - Partly cloudy 10 - - - -
27/10:30am 16.0 E 19 24 1017.8 - 0.2 - Partly cloudy 9 - - - -
27/10:00am 16.1 E 18 25 1017.8 - 0.0 - Partly cloudy 10 - - - -
27/09:30am 15.9 ENE 19 25 1017.8 - 0.0 - Partly cloudy 10 - - - -
27/09:00am 15.9 E 18 23 1017.9 - 0.0 - Partly cloudy 10 - - - -
27/08:30am 17.2 E 18 21 1018.2 R 1.8 Drizzle Cloudy 25 - - - -
27/08:00am 16.8 E 15 19 1018.2 - 1.8 - Partly cloudy 10 - - - -
27/07:30am 16.8 E 14 18 1018.1 - 1.8 - Partly cloudy 10 - - - -

Other Formats:

Comma delimited format used in spreadsheet applications
http://www.bom.gov.au/fwo/IDN60701/IDN60701.94995.axf

JavaScript Object Notation format (JSON) in row-major order
http://www.bom.gov.au/fwo/IDN60701/IDN60701.94995.json